sensor_id;sensor_type;location;lat;lon;timestamp;pressure;altitude;pressure_sealevel;temperature;humidity
11806;BME280;5960;42.602;23.482;2022-10-24T00:00:28;94111.22;;;14.64;66.20
11806;BME280;5960;42.602;23.482;2022-10-24T00:02:56;94094.66;;;14.55;66.71
11806;BME280;5960;42.602;23.482;2022-10-24T00:05:24;94099.06;;;14.70;66.20
11806;BME280;5960;42.602;23.482;2022-10-24T00:07:51;94102.66;;;14.62;66.34
11806;BME280;5960;42.602;23.482;2022-10-24T00:10:18;94100.44;;;14.66;66.13
11806;BME280;5960;42.602;23.482;2022-10-24T00:12:45;94098.69;;;14.44;66.68
11806;BME280;5960;42.602;23.482;2022-10-24T00:15:12;94103.94;;;14.31;67.39
11806;BME280;5960;42.602;23.482;2022-10-24T00:17:39;94096.66;;;14.40;67.16
11806;BME280;5960;42.602;23.482;2022-10-24T00:20:08;94098.44;;;14.33;67.37
11806;BME280;5960;42.602;23.482;2022-10-24T00:22:36;94096.63;;;14.33;67.28
11806;BME280;5960;42.602;23.482;2022-10-24T00:25:03;94093.13;;;14.33;67.04
11806;BME280;5960;42.602;23.482;2022-10-24T00:27:32;94104.56;;;14.33;67.07
11806;BME280;5960;42.602;23.482;2022-10-24T00:29:59;94104.59;;;14.40;66.77
11806;BME280;5960;42.602;23.482;2022-10-24T00:32:26;94100.47;;;14.30;67.14
11806;BME280;5960;42.602;23.482;2022-10-24T00:34:53;94100.59;;;14.16;67.71
11806;BME280;5960;42.602;23.482;2022-10-24T00:37:21;94097.16;;;14.22;67.62
11806;BME280;5960;42.602;23.482;2022-10-24T00:39:47;94099.34;;;14.11;67.96
11806;BME280;5960;42.602;23.482;2022-10-24T00:42:14;94099.19;;;14.20;67.50
11806;BME280;5960;42.602;23.482;2022-10-24T00:44:42;94091.81;;;14.15;67.60
11806;BME280;5960;42.602;23.482;2022-10-24T00:47:11;94082.91;;;14.29;67.13
11806;BME280;5960;42.602;23.482;2022-10-24T00:49:44;94088.97;;;14.17;67.44
11806;BME280;5960;42.602;23.482;2022-10-24T00:52:14;94088.94;;;14.10;67.70
11806;BME280;5960;42.602;23.482;2022-10-24T00:54:44;94088.47;;;13.99;67.70
11806;BME280;5960;42.602;23.482;2022-10-24T00:57:15;94091.31;;;13.98;68.19
11806;BME280;5960;42.602;23.482;2022-10-24T00:59:45;94090.28;;;13.99;68.29
11806;BME280;5960;42.602;23.482;2022-10-24T01:02:13;94082.59;;;14.04;68.29
11806;BME280;5960;42.602;23.482;2022-10-24T01:04:39;94092.13;;;13.98;67.98
11806;BME280;5960;42.602;23.482;2022-10-24T01:07:21;94081.16;;;14.02;68.39
11806;BME280;5960;42.602;23.482;2022-10-24T01:10:05;94088.75;;;13.83;69.23
11806;BME280;5960;42.602;23.482;2022-10-24T01:12:41;94093.63;;;13.79;68.74
11806;BME280;5960;42.602;23.482;2022-10-24T01:15:14;94098.78;;;13.88;69.02
11806;BME280;5960;42.602;23.482;2022-10-24T01:17:50;94088.97;;;13.81;69.41
11806;BME280;5960;42.602;23.482;2022-10-24T01:20:47;94096.16;;;13.88;68.89
11806;BME280;5960;42.602;23.482;2022-10-24T01:23:49;94104.94;;;13.66;69.25
11806;BME280;5960;42.602;23.482;2022-10-24T01:26:38;94093.72;;;13.64;69.19
11806;BME280;5960;42.602;23.482;2022-10-24T01:29:12;94091.41;;;13.54;69.73
11806;BME280;5960;42.602;23.482;2022-10-24T01:31:46;94091.03;;;13.58;69.90
11806;BME280;5960;42.602;23.482;2022-10-24T01:34:21;94093.81;;;13.49;69.79
11806;BME280;5960;42.602;23.482;2022-10-24T01:36:55;94091.16;;;13.49;69.97
11806;BME280;5960;42.602;23.482;2022-10-24T01:39:27;94087.88;;;13.69;69.92
11806;BME280;5960;42.602;23.482;2022-10-24T01:41:57;94088.38;;;13.58;70.26
11806;BME280;5960;42.602;23.482;2022-10-24T01:44:27;94089.00;;;13.60;70.21
11806;BME280;5960;42.602;23.482;2022-10-24T01:47:01;94084.22;;;13.48;70.53
11806;BME280;5960;42.602;23.482;2022-10-24T01:49:31;94088.72;;;13.48;70.36
11806;BME280;5960;42.602;23.482;2022-10-24T01:52:02;94089.78;;;13.53;70.33
11806;BME280;5960;42.602;23.482;2022-10-24T01:54:30;94083.84;;;13.51;70.98
11806;BME280;5960;42.602;23.482;2022-10-24T01:56:58;94086.94;;;13.55;70.93
11806;BME280;5960;42.602;23.482;2022-10-24T01:59:44;94080.97;;;13.46;70.95
11806;BME280;5960;42.602;23.482;2022-10-24T02:02:16;94079.72;;;13.42;71.08
11806;BME280;5960;42.602;23.482;2022-10-24T02:04:49;94072.41;;;13.44;70.95
11806;BME280;5960;42.602;23.482;2022-10-24T02:07:18;94081.16;;;13.45;70.83
11806;BME280;5960;42.602;23.482;2022-10-24T02:09:49;94079.06;;;13.40;71.42
11806;BME280;5960;42.602;23.482;2022-10-24T02:12:19;94086.44;;;13.45;70.98
11806;BME280;5960;42.602;23.482;2022-10-24T02:14:50;94079.19;;;13.32;71.47
11806;BME280;5960;42.602;23.482;2022-10-24T02:17:21;94081.25;;;13.36;71.37
11806;BME280;5960;42.602;23.482;2022-10-24T02:19:48;94080.22;;;13.37;70.94
11806;BME280;5960;42.602;23.482;2022-10-24T02:22:21;94087.38;;;13.37;70.92
11806;BME280;5960;42.602;23.482;2022-10-24T02:24:52;94078.88;;;13.20;71.33
11806;BME280;5960;42.602;23.482;2022-10-24T02:27:23;94089.50;;;13.27;70.89
11806;BME280;5960;42.602;23.482;2022-10-24T02:29:57;94088.81;;;13.18;71.55
11806;BME280;5960;42.602;23.482;2022-10-24T02:32:29;94088.97;;;13.31;71.06
11806;BME280;5960;42.602;23.482;2022-10-24T02:34:58;94086.22;;;13.24;71.47
11806;BME280;5960;42.602;23.482;2022-10-24T02:37:28;94083.41;;;13.26;71.77
11806;BME280;5960;42.602;23.482;2022-10-24T02:39:56;94079.88;;;13.19;71.89
11806;BME280;5960;42.602;23.482;2022-10-24T02:42:26;94081.50;;;13.20;71.12
11806;BME280;5960;42.602;23.482;2022-10-24T02:44:54;94085.75;;;13.14;71.33
11806;BME280;5960;42.602;23.482;2022-10-24T02:47:23;94085.31;;;13.11;71.33
11806;BME280;5960;42.602;23.482;2022-10-24T02:49:53;94082.56;;;13.04;71.15
11806;BME280;5960;42.602;23.482;2022-10-24T02:52:20;94081.94;;;13.02;71.10
11806;BME280;5960;42.602;23.482;2022-10-24T02:54:48;94083.59;;;13.03;71.36
11806;BME280;5960;42.602;23.482;2022-10-24T02:57:15;94083.91;;;12.93;71.73
11806;BME280;5960;42.602;23.482;2022-10-24T02:59:42;94083.16;;;12.99;72.30
11806;BME280;5960;42.602;23.482;2022-10-24T03:02:09;94085.38;;;12.96;72.19
11806;BME280;5960;42.602;23.482;2022-10-24T03:04:35;94086.91;;;12.90;72.05
11806;BME280;5960;42.602;23.482;2022-10-24T03:07:03;94082.25;;;12.92;72.30
11806;BME280;5960;42.602;23.482;2022-10-24T03:09:31;94086.09;;;12.89;72.20
11806;BME280;5960;42.602;23.482;2022-10-24T03:11:58;94068.13;;;13.00;72.37
11806;BME280;5960;42.602;23.482;2022-10-24T03:14:25;94083.34;;;12.98;72.01
11806;BME280;5960;42.602;23.482;2022-10-24T03:16:52;94071.19;;;13.03;71.58
11806;BME280;5960;42.602;23.482;2022-10-24T03:19:19;94069.28;;;12.97;71.73
11806;BME280;5960;42.602;23.482;2022-10-24T03:21:45;94077.69;;;13.01;71.81
11806;BME280;5960;42.602;23.482;2022-10-24T03:24:13;94069.16;;;12.84;71.96
11806;BME280;5960;42.602;23.482;2022-10-24T03:26:40;94076.09;;;12.85;71.79
11806;BME280;5960;42.602;23.482;2022-10-24T03:29:07;94070.97;;;12.83;72.42
11806;BME280;5960;42.602;23.482;2022-10-24T03:31:34;94074.47;;;12.84;71.95
11806;BME280;5960;42.602;23.482;2022-10-24T03:34:00;94073.13;;;12.73;72.25
11806;BME280;5960;42.602;23.482;2022-10-24T03:36:27;94078.50;;;12.64;72.74
11806;BME280;5960;42.602;23.482;2022-10-24T03:38:54;94070.66;;;12.71;72.15
11806;BME280;5960;42.602;23.482;2022-10-24T03:41:22;94071.22;;;12.67;72.68
11806;BME280;5960;42.602;23.482;2022-10-24T03:43:49;94079.88;;;12.60;72.26
11806;BME280;5960;42.602;23.482;2022-10-24T03:46:16;94072.91;;;12.53;72.51
11806;BME280;5960;42.602;23.482;2022-10-24T03:48:42;94071.88;;;12.54;72.35
11806;BME280;5960;42.602;23.482;2022-10-24T03:51:09;94084.44;;;12.67;71.81
11806;BME280;5960;42.602;23.482;2022-10-24T03:53:36;94079.34;;;12.65;72.05
11806;BME280;5960;42.602;23.482;2022-10-24T03:56:03;94079.53;;;12.63;71.41
11806;BME280;5960;42.602;23.482;2022-10-24T03:58:31;94076.31;;;12.68;72.29
11806;BME280;5960;42.602;23.482;2022-10-24T04:00:58;94082.78;;;12.66;72.12
11806;BME280;5960;42.602;23.482;2022-10-24T04:03:26;94075.78;;;12.73;72.12
11806;BME280;5960;42.602;23.482;2022-10-24T04:05:53;94070.69;;;12.56;72.15
11806;BME280;5960;42.602;23.482;2022-10-24T04:08:20;94070.16;;;12.61;72.57
11806;BME280;5960;42.602;23.482;2022-10-24T04:10:48;94069.88;;;12.56;72.30
11806;BME280;5960;42.602;23.482;2022-10-24T04:13:15;94070.25;;;12.53;72.04
11806;BME280;5960;42.602;23.482;2022-10-24T04:15:43;94073.16;;;12.58;72.33
11806;BME280;5960;42.602;23.482;2022-10-24T04:18:10;94075.38;;;12.54;72.58
11806;BME280;5960;42.602;23.482;2022-10-24T04:20:36;94063.41;;;12.58;72.64
11806;BME280;5960;42.602;23.482;2022-10-24T04:23:03;94061.13;;;12.55;72.35
11806;BME280;5960;42.602;23.482;2022-10-24T04:25:30;94060.41;;;12.46;73.12
11806;BME280;5960;42.602;23.482;2022-10-24T04:27:57;94060.25;;;12.48;73.25
11806;BME280;5960;42.602;23.482;2022-10-24T04:30:24;94051.13;;;12.36;73.88
11806;BME280;5960;42.602;23.482;2022-10-24T04:32:52;94058.00;;;12.30;73.78
11806;BME280;5960;42.602;23.482;2022-10-24T04:35:18;94059.25;;;12.34;73.59
11806;BME280;5960;42.602;23.482;2022-10-24T04:37:45;94064.09;;;12.30;73.94
11806;BME280;5960;42.602;23.482;2022-10-24T04:40:12;94072.56;;;12.26;73.27
11806;BME280;5960;42.602;23.482;2022-10-24T04:42:39;94064.81;;;12.39;73.29
11806;BME280;5960;42.602;23.482;2022-10-24T04:45:07;94067.09;;;12.42;73.05
11806;BME280;5960;42.602;23.482;2022-10-24T04:47:34;94069.91;;;12.41;72.87
11806;BME280;5960;42.602;23.482;2022-10-24T04:50:03;94069.97;;;12.47;73.44
11806;BME280;5960;42.602;23.482;2022-10-24T04:52:30;94061.34;;;12.39;74.49
11806;BME280;5960;42.602;23.482;2022-10-24T04:54:57;94069.34;;;12.45;73.71
11806;BME280;5960;42.602;23.482;2022-10-24T04:57:24;94072.19;;;12.44;73.54
11806;BME280;5960;42.602;23.482;2022-10-24T04:59:50;94082.94;;;12.42;73.08
11806;BME280;5960;42.602;23.482;2022-10-24T05:02:17;94087.75;;;12.39;73.19
11806;BME280;5960;42.602;23.482;2022-10-24T05:04:44;94091.13;;;12.47;73.13
11806;BME280;5960;42.602;23.482;2022-10-24T05:07:12;94097.59;;;12.45;73.38
11806;BME280;5960;42.602;23.482;2022-10-24T05:09:39;94082.47;;;12.54;73.97
11806;BME280;5960;42.602;23.482;2022-10-24T05:12:05;94083.00;;;12.64;73.59
11806;BME280;5960;42.602;23.482;2022-10-24T05:14:32;94085.34;;;12.74;73.12
11806;BME280;5960;42.602;23.482;2022-10-24T05:16:59;94076.56;;;12.73;73.17
11806;BME280;5960;42.602;23.482;2022-10-24T05:19:26;94089.72;;;12.67;73.25
11806;BME280;5960;42.602;23.482;2022-10-24T05:21:52;94084.81;;;12.63;72.92
11806;BME280;5960;42.602;23.482;2022-10-24T05:24:21;94091.94;;;12.63;73.03
11806;BME280;5960;42.602;23.482;2022-10-24T05:26:48;94092.38;;;12.67;72.85
11806;BME280;5960;42.602;23.482;2022-10-24T05:29:14;94092.81;;;12.70;73.45
11806;BME280;5960;42.602;23.482;2022-10-24T05:31:41;94100.84;;;12.77;72.91
11806;BME280;5960;42.602;23.482;2022-10-24T05:34:08;94104.03;;;12.94;72.64
11806;BME280;5960;42.602;23.482;2022-10-24T05:36:35;94104.13;;;13.01;72.67
11806;BME280;5960;42.602;23.482;2022-10-24T05:39:02;94103.38;;;13.07;72.37
11806;BME280;5960;42.602;23.482;2022-10-24T05:41:30;94103.69;;;13.19;72.01
11806;BME280;5960;42.602;23.482;2022-10-24T05:43:57;94092.94;;;13.42;71.41
11806;BME280;5960;42.602;23.482;2022-10-24T05:46:23;94093.16;;;13.47;70.59
11806;BME280;5960;42.602;23.482;2022-10-24T05:48:50;94090.44;;;13.62;70.27
11806;BME280;5960;42.602;23.482;2022-10-24T05:51:17;94093.59;;;13.73;69.97
11806;BME280;5960;42.602;23.482;2022-10-24T05:53:44;94091.38;;;13.76;69.58
11806;BME280;5960;42.602;23.482;2022-10-24T05:56:10;94094.31;;;13.88;70.10
11806;BME280;5960;42.602;23.482;2022-10-24T05:58:39;94091.78;;;14.08;69.28
11806;BME280;5960;42.602;23.482;2022-10-24T06:01:05;94102.69;;;14.27;69.28
11806;BME280;5960;42.602;23.482;2022-10-24T06:03:32;94102.44;;;14.57;67.71
11806;BME280;5960;42.602;23.482;2022-10-24T06:06:03;94094.56;;;14.77;67.18
11806;BME280;5960;42.602;23.482;2022-10-24T06:08:29;94103.81;;;14.95;66.38
11806;BME280;5960;42.602;23.482;2022-10-24T06:10:56;94118.38;;;15.19;65.39
11806;BME280;5960;42.602;23.482;2022-10-24T06:13:23;94120.22;;;15.32;65.30
11806;BME280;5960;42.602;23.482;2022-10-24T06:15:51;94119.63;;;15.43;65.04
11806;BME280;5960;42.602;23.482;2022-10-24T06:18:18;94122.53;;;15.62;64.73
11806;BME280;5960;42.602;23.482;2022-10-24T06:20:45;94129.69;;;15.88;63.43
11806;BME280;5960;42.602;23.482;2022-10-24T06:23:11;94120.69;;;16.03;62.92
11806;BME280;5960;42.602;23.482;2022-10-24T06:25:39;94121.31;;;16.12;62.58
11806;BME280;5960;42.602;23.482;2022-10-24T06:28:06;94118.78;;;16.37;61.74
11806;BME280;5960;42.602;23.482;2022-10-24T06:30:33;94109.56;;;16.53;60.79
11806;BME280;5960;42.602;23.482;2022-10-24T06:33:01;94106.22;;;16.64;60.60
11806;BME280;5960;42.602;23.482;2022-10-24T06:35:28;94112.91;;;16.80;60.25
11806;BME280;5960;42.602;23.482;2022-10-24T06:37:55;94114.28;;;17.03;59.45
11806;BME280;5960;42.602;23.482;2022-10-24T06:40:21;94121.94;;;17.25;58.98
11806;BME280;5960;42.602;23.482;2022-10-24T06:42:48;94128.38;;;17.42;58.75
11806;BME280;5960;42.602;23.482;2022-10-24T06:45:15;94138.09;;;17.62;58.03
11806;BME280;5960;42.602;23.482;2022-10-24T06:47:42;94140.25;;;17.79;57.10
11806;BME280;5960;42.602;23.482;2022-10-24T06:50:10;94148.97;;;17.86;56.25
11806;BME280;5960;42.602;23.482;2022-10-24T06:52:37;94152.25;;;17.88;56.39
11806;BME280;5960;42.602;23.482;2022-10-24T06:55:04;94153.22;;;18.00;55.66
11806;BME280;5960;42.602;23.482;2022-10-24T06:57:31;94156.81;;;18.13;55.58
11806;BME280;5960;42.602;23.482;2022-10-24T06:59:58;94154.25;;;18.25;55.35
11806;BME280;5960;42.602;23.482;2022-10-24T07:02:25;94152.16;;;18.27;55.09
11806;BME280;5960;42.602;23.482;2022-10-24T07:04:51;94141.66;;;18.32;55.19
11806;BME280;5960;42.602;23.482;2022-10-24T07:07:20;94144.59;;;18.49;54.95
11806;BME280;5960;42.602;23.482;2022-10-24T07:09:51;94149.03;;;18.74;54.11
11806;BME280;5960;42.602;23.482;2022-10-24T07:12:18;94145.41;;;18.87;53.72
11806;BME280;5960;42.602;23.482;2022-10-24T07:14:45;94146.66;;;19.03;53.63
11806;BME280;5960;42.602;23.482;2022-10-24T07:17:12;94149.25;;;19.28;52.82
11806;BME280;5960;42.602;23.482;2022-10-24T07:19:39;94152.09;;;19.45;52.64
11806;BME280;5960;42.602;23.482;2022-10-24T07:22:06;94148.44;;;19.70;52.17
11806;BME280;5960;42.602;23.482;2022-10-24T07:24:35;94150.69;;;19.85;51.97
11806;BME280;5960;42.602;23.482;2022-10-24T07:27:02;94147.03;;;20.10;51.51
11806;BME280;5960;42.602;23.482;2022-10-24T07:29:29;94144.47;;;20.39;50.61
11806;BME280;5960;42.602;23.482;2022-10-24T07:31:55;94143.09;;;20.60;49.77
11806;BME280;5960;42.602;23.482;2022-10-24T07:34:23;94144.59;;;20.80;49.41
11806;BME280;5960;42.602;23.482;2022-10-24T07:36:50;94145.25;;;20.99;48.63
11806;BME280;5960;42.602;23.482;2022-10-24T07:39:17;94143.91;;;21.25;48.45
11806;BME280;5960;42.602;23.482;2022-10-24T07:41:45;94135.03;;;21.54;47.78
11806;BME280;5960;42.602;23.482;2022-10-24T07:44:12;94149.16;;;21.78;47.25
11806;BME280;5960;42.602;23.482;2022-10-24T07:46:40;94161.94;;;22.05;46.36
11806;BME280;5960;42.602;23.482;2022-10-24T07:49:07;94159.28;;;22.22;45.89
11806;BME280;5960;42.602;23.482;2022-10-24T07:51:34;94157.06;;;22.36;45.39
11806;BME280;5960;42.602;23.482;2022-10-24T07:54:01;94157.59;;;22.50;43.96
11806;BME280;5960;42.602;23.482;2022-10-24T07:56:28;94157.00;;;22.48;44.73
11806;BME280;5960;42.602;23.482;2022-10-24T07:58:57;94159.53;;;22.54;43.93
11806;BME280;5960;42.602;23.482;2022-10-24T08:01:26;94152.13;;;22.62;44.43
11806;BME280;5960;42.602;23.482;2022-10-24T08:03:54;94150.69;;;22.76;43.66
11806;BME280;5960;42.602;23.482;2022-10-24T08:06:23;94146.09;;;23.16;43.42
11806;BME280;5960;42.602;23.482;2022-10-24T08:08:51;94139.47;;;23.46;42.53
11806;BME280;5960;42.602;23.482;2022-10-24T08:11:19;94145.97;;;23.78;41.86
11806;BME280;5960;42.602;23.482;2022-10-24T08:13:47;94139.25;;;24.08;41.16
11806;BME280;5960;42.602;23.482;2022-10-24T08:16:17;94145.47;;;24.46;40.12
11806;BME280;5960;42.602;23.482;2022-10-24T08:18:45;94145.59;;;24.67;39.92
11806;BME280;5960;42.602;23.482;2022-10-24T08:21:14;94140.03;;;24.78;39.30
11806;BME280;5960;42.602;23.482;2022-10-24T08:23:43;94138.72;;;24.86;39.21
11806;BME280;5960;42.602;23.482;2022-10-24T08:26:11;94131.59;;;25.23;38.62
11806;BME280;5960;42.602;23.482;2022-10-24T08:28:38;94126.63;;;25.58;37.64
11806;BME280;5960;42.602;23.482;2022-10-24T08:31:07;94127.75;;;25.82;37.45
11806;BME280;5960;42.602;23.482;2022-10-24T08:33:37;94128.28;;;25.90;37.65
11806;BME280;5960;42.602;23.482;2022-10-24T08:36:06;94129.38;;;26.14;37.29
11806;BME280;5960;42.602;23.482;2022-10-24T08:38:37;94130.72;;;26.02;36.42
11806;BME280;5960;42.602;23.482;2022-10-24T08:41:04;94125.88;;;26.14;37.24
11806;BME280;5960;42.602;23.482;2022-10-24T08:43:32;94126.69;;;26.30;37.12
11806;BME280;5960;42.602;23.482;2022-10-24T08:46:05;94125.03;;;26.60;36.01
11806;BME280;5960;42.602;23.482;2022-10-24T08:48:42;94129.88;;;26.79;36.12
11806;BME280;5960;42.602;23.482;2022-10-24T08:51:20;94122.28;;;26.96;35.44
11806;BME280;5960;42.602;23.482;2022-10-24T08:53:54;94116.25;;;27.15;35.61
11806;BME280;5960;42.602;23.482;2022-10-24T08:56:23;94115.69;;;27.23;35.00
11806;BME280;5960;42.602;23.482;2022-10-24T08:58:52;94112.66;;;27.35;34.49
11806;BME280;5960;42.602;23.482;2022-10-24T09:01:27;94112.81;;;27.54;34.80
11806;BME280;5960;42.602;23.482;2022-10-24T09:03:59;94110.84;;;27.70;34.37
11806;BME280;5960;42.602;23.482;2022-10-24T09:06:30;94104.81;;;27.84;33.71
11806;BME280;5960;42.602;23.482;2022-10-24T09:08:59;94111.66;;;27.71;34.24
11806;BME280;5960;42.602;23.482;2022-10-24T09:11:30;94103.19;;;27.83;33.95
11806;BME280;5960;42.602;23.482;2022-10-24T09:14:06;94098.78;;;27.92;33.37
11806;BME280;5960;42.602;23.482;2022-10-24T09:16:40;94103.09;;;27.93;32.91
11806;BME280;5960;42.602;23.482;2022-10-24T09:19:12;94113.59;;;28.00;32.92
11806;BME280;5960;42.602;23.482;2022-10-24T09:21:41;94109.94;;;27.85;33.79
11806;BME280;5960;42.602;23.482;2022-10-24T09:24:21;94106.50;;;28.09;32.88
11806;BME280;5960;42.602;23.482;2022-10-24T09:26:49;94099.66;;;27.82;33.13
11806;BME280;5960;42.602;23.482;2022-10-24T09:29:16;94093.00;;;27.64;33.70
11806;BME280;5960;42.602;23.482;2022-10-24T09:31:43;94096.38;;;27.85;33.48
11806;BME280;5960;42.602;23.482;2022-10-24T09:34:15;94105.31;;;28.26;33.16
11806;BME280;5960;42.602;23.482;2022-10-24T09:36:43;94095.88;;;28.47;33.00
11806;BME280;5960;42.602;23.482;2022-10-24T09:39:24;94100.88;;;28.64;32.95
11806;BME280;5960;42.602;23.482;2022-10-24T09:41:51;94101.16;;;28.92;32.27
11806;BME280;5960;42.602;23.482;2022-10-24T09:44:36;94100.03;;;29.18;31.82
11806;BME280;5960;42.602;23.482;2022-10-24T09:47:05;94092.09;;;29.02;31.47
11806;BME280;5960;42.602;23.482;2022-10-24T09:49:38;94089.56;;;28.87;31.87
11806;BME280;5960;42.602;23.482;2022-10-24T09:52:13;94088.56;;;29.02;32.39
11806;BME280;5960;42.602;23.482;2022-10-24T09:54:41;94085.16;;;29.15;31.91
11806;BME280;5960;42.602;23.482;2022-10-24T09:57:14;94088.59;;;29.21;31.43
11806;BME280;5960;42.602;23.482;2022-10-24T09:59:42;94083.84;;;29.32;31.43
11806;BME280;5960;42.602;23.482;2022-10-24T10:02:19;94083.75;;;29.42;31.79
11806;BME280;5960;42.602;23.482;2022-10-24T10:05:10;94086.16;;;29.63;30.87
11806;BME280;5960;42.602;23.482;2022-10-24T10:07:39;94084.63;;;29.76;30.95
11806;BME280;5960;42.602;23.482;2022-10-24T10:10:22;94087.63;;;29.93;30.89
11806;BME280;5960;42.602;23.482;2022-10-24T10:12:55;94080.44;;;30.02;30.77
11806;BME280;5960;42.602;23.482;2022-10-24T10:15:26;94075.78;;;30.22;30.82
11806;BME280;5960;42.602;23.482;2022-10-24T10:17:57;94075.41;;;30.43;30.04
11806;BME280;5960;42.602;23.482;2022-10-24T10:20:30;94077.03;;;30.44;29.87
11806;BME280;5960;42.602;23.482;2022-10-24T10:23:15;94080.94;;;30.71;29.95
11806;BME280;5960;42.602;23.482;2022-10-24T10:25:42;94073.56;;;30.85;30.08
11806;BME280;5960;42.602;23.482;2022-10-24T10:28:18;94068.41;;;30.98;29.02
11806;BME280;5960;42.602;23.482;2022-10-24T10:30:48;94060.75;;;31.28;29.68
11806;BME280;5960;42.602;23.482;2022-10-24T10:33:18;94058.97;;;31.60;29.35
11806;BME280;5960;42.602;23.482;2022-10-24T10:35:51;94058.34;;;31.77;28.54
11806;BME280;5960;42.602;23.482;2022-10-24T10:38:50;94048.81;;;31.88;28.53
11806;BME280;5960;42.602;23.482;2022-10-24T10:41:30;94048.06;;;31.96;28.47
11806;BME280;5960;42.602;23.482;2022-10-24T10:44:10;94051.34;;;31.85;28.75
11806;BME280;5960;42.602;23.482;2022-10-24T10:46:49;94031.41;;;31.98;28.47
11806;BME280;5960;42.602;23.482;2022-10-24T10:49:23;94050.31;;;31.58;27.95
11806;BME280;5960;42.602;23.482;2022-10-24T10:51:57;94039.97;;;31.83;28.59
11806;BME280;5960;42.602;23.482;2022-10-24T10:54:51;94038.97;;;32.01;28.53
11806;BME280;5960;42.602;23.482;2022-10-24T10:57:20;94033.00;;;32.22;28.24
11806;BME280;5960;42.602;23.482;2022-10-24T10:59:56;94033.97;;;32.49;27.04
11806;BME280;5960;42.602;23.482;2022-10-24T11:02:52;94031.59;;;32.56;27.76
11806;BME280;5960;42.602;23.482;2022-10-24T11:05:42;94033.41;;;32.69;27.41
11806;BME280;5960;42.602;23.482;2022-10-24T11:08:28;94023.56;;;32.91;26.43
11806;BME280;5960;42.602;23.482;2022-10-24T11:11:01;94020.69;;;32.96;26.75
11806;BME280;5960;42.602;23.482;2022-10-24T11:13:31;94015.25;;;33.05;26.60
11806;BME280;5960;42.602;23.482;2022-10-24T11:16:01;94017.38;;;33.26;26.86
11806;BME280;5960;42.602;23.482;2022-10-24T11:18:33;94013.25;;;33.55;26.37
11806;BME280;5960;42.602;23.482;2022-10-24T11:21:04;94008.38;;;33.87;25.68
11806;BME280;5960;42.602;23.482;2022-10-24T11:23:38;94011.75;;;33.22;26.16
11806;BME280;5960;42.602;23.482;2022-10-24T11:26:09;94014.34;;;33.27;25.97
11806;BME280;5960;42.602;23.482;2022-10-24T11:28:41;94006.31;;;33.75;26.25
11806;BME280;5960;42.602;23.482;2022-10-24T11:31:13;94009.63;;;34.25;25.25
11806;BME280;5960;42.602;23.482;2022-10-24T11:33:45;94016.19;;;34.89;24.38
11806;BME280;5960;42.602;23.482;2022-10-24T11:36:17;94007.91;;;35.58;23.68
11806;BME280;5960;42.602;23.482;2022-10-24T11:38:50;94000.19;;;36.27;23.16
11806;BME280;5960;42.602;23.482;2022-10-24T11:41:28;93996.97;;;36.83;22.34
11806;BME280;5960;42.602;23.482;2022-10-24T11:43:58;93998.75;;;37.54;21.88
11806;BME280;5960;42.602;23.482;2022-10-24T11:46:32;93991.50;;;38.02;20.80
11806;BME280;5960;42.602;23.482;2022-10-24T11:49:03;93990.81;;;38.66;20.54
11806;BME280;5960;42.602;23.482;2022-10-24T11:51:38;93990.22;;;39.24;20.00
11806;BME280;5960;42.602;23.482;2022-10-24T11:54:12;93986.66;;;39.99;19.49
11806;BME280;5960;42.602;23.482;2022-10-24T11:56:45;93982.66;;;40.59;19.45
11806;BME280;5960;42.602;23.482;2022-10-24T11:59:15;93982.09;;;41.19;18.23
11806;BME280;5960;42.602;23.482;2022-10-24T12:05:20;93976.91;;;41.48;17.88
11806;BME280;5960;42.602;23.482;2022-10-24T12:08:24;93979.16;;;42.34;17.59
11806;BME280;5960;42.602;23.482;2022-10-24T12:11:06;93980.34;;;43.27;17.01
11806;BME280;5960;42.602;23.482;2022-10-24T12:13:49;93975.53;;;43.87;16.06
11806;BME280;5960;42.602;23.482;2022-10-24T12:16:30;93968.13;;;44.27;16.18
11806;BME280;5960;42.602;23.482;2022-10-24T12:19:03;93970.19;;;44.67;16.09
11806;BME280;5960;42.602;23.482;2022-10-24T12:21:35;93960.63;;;44.60;15.47
11806;BME280;5960;42.602;23.482;2022-10-24T12:24:04;93959.44;;;45.16;15.36
11806;BME280;5960;42.602;23.482;2022-10-24T12:26:34;93969.03;;;44.86;14.96
11806;BME280;5960;42.602;23.482;2022-10-24T12:29:03;93967.41;;;44.52;15.36
11806;BME280;5960;42.602;23.482;2022-10-24T12:31:32;93955.97;;;43.62;16.17
11806;BME280;5960;42.602;23.482;2022-10-24T12:37:10;93958.16;;;43.27;16.23
11806;BME280;5960;42.602;23.482;2022-10-24T12:39:40;93958.09;;;43.94;15.81
11806;BME280;5960;42.602;23.482;2022-10-24T12:42:14;93950.72;;;44.70;15.75
11806;BME280;5960;42.602;23.482;2022-10-24T12:44:44;93950.31;;;45.15;15.75
11806;BME280;5960;42.602;23.482;2022-10-24T12:47:33;93952.22;;;45.58;15.05
11806;BME280;5960;42.602;23.482;2022-10-24T12:53:02;93947.56;;;44.61;15.30
11806;BME280;5960;42.602;23.482;2022-10-24T12:58:44;93944.31;;;45.24;14.71
11806;BME280;5960;42.602;23.482;2022-10-24T13:01:27;93941.16;;;45.18;15.25
11806;BME280;5960;42.602;23.482;2022-10-24T13:04:38;93932.34;;;45.56;14.66
11806;BME280;5960;42.602;23.482;2022-10-24T13:07:27;93935.88;;;45.60;15.13
11806;BME280;5960;42.602;23.482;2022-10-24T13:10:08;93934.03;;;45.25;14.81
11806;BME280;5960;42.602;23.482;2022-10-24T13:12:49;93937.22;;;44.65;14.75
11806;BME280;5960;42.602;23.482;2022-10-24T13:15:26;93942.22;;;43.13;16.28
11806;BME280;5960;42.602;23.482;2022-10-24T13:18:04;93936.66;;;43.09;16.09
11806;BME280;5960;42.602;23.482;2022-10-24T13:20:36;93933.31;;;42.85;15.74
11806;BME280;5960;42.602;23.482;2022-10-24T13:23:11;93934.97;;;42.45;16.60
11806;BME280;5960;42.602;23.482;2022-10-24T13:25:40;93924.75;;;42.53;16.42
11806;BME280;5960;42.602;23.482;2022-10-24T13:28:32;93937.84;;;42.60;16.81
11806;BME280;5960;42.602;23.482;2022-10-24T13:34:23;93932.75;;;42.24;17.09